sensor_id;sensor_type;location;lat;lon;timestamp;P1;durP1;ratioP1;P2;durP2;ratioP2
50900;SDS011;36879;51.416;6.678;2023-05-16T00:00:29;18.23;;;9.90;;
50900;SDS011;36879;51.416;6.678;2023-05-16T00:02:59;19.00;;;10.02;;
50900;SDS011;36879;51.416;6.678;2023-05-16T00:05:25;21.52;;;10.32;;
50900;SDS011;36879;51.416;6.678;2023-05-16T00:07:51;14.30;;;8.55;;
50900;SDS011;36879;51.416;6.678;2023-05-16T00:10:17;16.35;;;8.57;;
50900;SDS011;36879;51.416;6.678;2023-05-16T00:12:43;21.45;;;7.97;;
50900;SDS011;36879;51.416;6.678;2023-05-16T00:15:09;14.32;;;6.82;;
50900;SDS011;36879;51.416;6.678;2023-05-16T00:17:39;15.38;;;6.65;;
50900;SDS011;36879;51.416;6.678;2023-05-16T00:20:07;12.05;;;6.05;;
50900;SDS011;36879;51.416;6.678;2023-05-16T00:22:36;17.70;;;6.97;;
50900;SDS011;36879;51.416;6.678;2023-05-16T00:25:02;16.50;;;7.28;;
50900;SDS011;36879;51.416;6.678;2023-05-16T00:27:28;18.77;;;8.38;;
50900;SDS011;36879;51.416;6.678;2023-05-16T00:29:54;17.20;;;8.60;;
50900;SDS011;36879;51.416;6.678;2023-05-16T00:32:20;21.17;;;8.10;;
50900;SDS011;36879;51.416;6.678;2023-05-16T00:34:46;19.05;;;8.15;;
50900;SDS011;36879;51.416;6.678;2023-05-16T00:37:12;19.10;;;7.40;;
50900;SDS011;36879;51.416;6.678;2023-05-16T00:39:38;17.05;;;8.30;;
50900;SDS011;36879;51.416;6.678;2023-05-16T00:42:04;17.83;;;8.02;;
50900;SDS011;36879;51.416;6.678;2023-05-16T00:44:30;15.32;;;8.57;;
50900;SDS011;36879;51.416;6.678;2023-05-16T00:46:57;22.48;;;9.65;;
50900;SDS011;36879;51.416;6.678;2023-05-16T00:49:24;22.33;;;9.90;;
50900;SDS011;36879;51.416;6.678;2023-05-16T00:51:50;22.35;;;10.07;;
50900;SDS011;36879;51.416;6.678;2023-05-16T00:54:16;24.63;;;10.60;;
50900;SDS011;36879;51.416;6.678;2023-05-16T00:56:43;21.48;;;9.48;;
50900;SDS011;36879;51.416;6.678;2023-05-16T00:59:09;23.02;;;9.23;;
50900;SDS011;36879;51.416;6.678;2023-05-16T01:01:35;23.40;;;10.38;;
50900;SDS011;36879;51.416;6.678;2023-05-16T01:04:02;17.92;;;8.55;;
50900;SDS011;36879;51.416;6.678;2023-05-16T01:06:27;20.05;;;8.05;;
50900;SDS011;36879;51.416;6.678;2023-05-16T01:08:54;17.63;;;7.93;;
50900;SDS011;36879;51.416;6.678;2023-05-16T01:11:26;21.05;;;8.07;;
50900;SDS011;36879;51.416;6.678;2023-05-16T01:21:48;13.48;;;5.80;;
50900;SDS011;36879;51.416;6.678;2023-05-16T01:24:34;15.10;;;6.70;;
50900;SDS011;36879;51.416;6.678;2023-05-16T01:27:03;17.08;;;6.57;;
50900;SDS011;36879;51.416;6.678;2023-05-16T01:29:30;15.80;;;5.80;;
50900;SDS011;36879;51.416;6.678;2023-05-16T01:31:56;14.73;;;6.13;;
50900;SDS011;36879;51.416;6.678;2023-05-16T01:34:22;18.95;;;6.72;;
50900;SDS011;36879;51.416;6.678;2023-05-16T01:36:55;19.88;;;6.45;;
50900;SDS011;36879;51.416;6.678;2023-05-16T01:44:36;20.77;;;7.40;;
50900;SDS011;36879;51.416;6.678;2023-05-16T01:47:10;18.00;;;7.15;;
50900;SDS011;36879;51.416;6.678;2023-05-16T01:52:14;24.17;;;6.75;;
50900;SDS011;36879;51.416;6.678;2023-05-16T01:54:42;21.83;;;7.85;;
50900;SDS011;36879;51.416;6.678;2023-05-16T01:57:09;17.63;;;5.53;;
50900;SDS011;36879;51.416;6.678;2023-05-16T01:59:35;16.38;;;5.85;;
50900;SDS011;36879;51.416;6.678;2023-05-16T02:02:01;21.50;;;6.35;;
50900;SDS011;36879;51.416;6.678;2023-05-16T02:04:27;19.02;;;7.30;;
50900;SDS011;36879;51.416;6.678;2023-05-16T02:06:53;16.42;;;7.32;;
50900;SDS011;36879;51.416;6.678;2023-05-16T02:09:22;16.42;;;6.22;;
50900;SDS011;36879;51.416;6.678;2023-05-16T02:11:49;20.73;;;7.00;;
50900;SDS011;36879;51.416;6.678;2023-05-16T02:14:15;16.85;;;5.63;;
50900;SDS011;36879;51.416;6.678;2023-05-16T02:16:41;27.70;;;7.25;;
50900;SDS011;36879;51.416;6.678;2023-05-16T02:19:07;26.17;;;7.53;;
50900;SDS011;36879;51.416;6.678;2023-05-16T02:21:33;25.17;;;6.53;;
50900;SDS011;36879;51.416;6.678;2023-05-16T02:24:00;22.25;;;6.43;;
50900;SDS011;36879;51.416;6.678;2023-05-16T02:26:26;16.55;;;7.38;;
50900;SDS011;36879;51.416;6.678;2023-05-16T02:28:52;16.33;;;5.45;;
50900;SDS011;36879;51.416;6.678;2023-05-16T02:31:31;21.83;;;6.80;;
50900;SDS011;36879;51.416;6.678;2023-05-16T02:33:57;27.40;;;5.97;;
50900;SDS011;36879;51.416;6.678;2023-05-16T02:36:23;19.10;;;6.18;;
50900;SDS011;36879;51.416;6.678;2023-05-16T02:38:50;24.73;;;6.20;;
50900;SDS011;36879;51.416;6.678;2023-05-16T02:41:16;22.05;;;6.25;;
50900;SDS011;36879;51.416;6.678;2023-05-16T02:43:42;20.00;;;5.43;;
50900;SDS011;36879;51.416;6.678;2023-05-16T02:46:29;21.27;;;5.55;;
50900;SDS011;36879;51.416;6.678;2023-05-16T02:48:57;28.92;;;5.93;;
50900;SDS011;36879;51.416;6.678;2023-05-16T02:51:24;18.33;;;5.68;;
50900;SDS011;36879;51.416;6.678;2023-05-16T02:53:50;18.38;;;4.93;;
50900;SDS011;36879;51.416;6.678;2023-05-16T02:56:17;18.08;;;5.45;;
50900;SDS011;36879;51.416;6.678;2023-05-16T02:58:45;18.67;;;5.95;;
50900;SDS011;36879;51.416;6.678;2023-05-16T03:01:12;18.25;;;5.05;;
50900;SDS011;36879;51.416;6.678;2023-05-16T03:03:38;16.20;;;5.55;;
50900;SDS011;36879;51.416;6.678;2023-05-16T03:06:04;15.88;;;5.55;;
50900;SDS011;36879;51.416;6.678;2023-05-16T03:08:30;20.10;;;4.80;;
50900;SDS011;36879;51.416;6.678;2023-05-16T03:10:56;16.10;;;4.80;;
50900;SDS011;36879;51.416;6.678;2023-05-16T03:13:22;24.65;;;5.40;;
50900;SDS011;36879;51.416;6.678;2023-05-16T03:15:48;20.73;;;5.03;;
50900;SDS011;36879;51.416;6.678;2023-05-16T03:18:14;18.20;;;4.53;;
50900;SDS011;36879;51.416;6.678;2023-05-16T03:20:40;14.98;;;4.50;;
50900;SDS011;36879;51.416;6.678;2023-05-16T03:23:06;10.32;;;4.00;;
50900;SDS011;36879;51.416;6.678;2023-05-16T03:25:33;13.13;;;3.42;;
50900;SDS011;36879;51.416;6.678;2023-05-16T03:28:00;17.77;;;4.03;;
50900;SDS011;36879;51.416;6.678;2023-05-16T03:30:26;21.90;;;4.30;;
50900;SDS011;36879;51.416;6.678;2023-05-16T03:32:52;20.25;;;3.30;;
50900;SDS011;36879;51.416;6.678;2023-05-16T03:35:18;15.43;;;4.72;;
50900;SDS011;36879;51.416;6.678;2023-05-16T03:37:44;13.73;;;3.30;;
50900;SDS011;36879;51.416;6.678;2023-05-16T03:40:10;8.88;;;3.33;;
50900;SDS011;36879;51.416;6.678;2023-05-16T03:42:36;16.15;;;3.13;;
50900;SDS011;36879;51.416;6.678;2023-05-16T03:45:05;16.08;;;3.10;;
50900;SDS011;36879;51.416;6.678;2023-05-16T03:47:32;18.25;;;4.85;;
50900;SDS011;36879;51.416;6.678;2023-05-16T03:49:58;11.05;;;3.15;;
50900;SDS011;36879;51.416;6.678;2023-05-16T03:52:24;19.15;;;4.05;;
50900;SDS011;36879;51.416;6.678;2023-05-16T03:54:50;14.95;;;4.47;;
50900;SDS011;36879;51.416;6.678;2023-05-16T03:57:16;12.85;;;3.90;;
50900;SDS011;36879;51.416;6.678;2023-05-16T03:59:42;20.55;;;4.45;;
50900;SDS011;36879;51.416;6.678;2023-05-16T04:02:08;17.55;;;4.60;;
50900;SDS011;36879;51.416;6.678;2023-05-16T04:04:34;14.98;;;3.72;;
50900;SDS011;36879;51.416;6.678;2023-05-16T04:07:00;14.95;;;3.72;;
50900;SDS011;36879;51.416;6.678;2023-05-16T04:09:26;19.15;;;3.60;;
50900;SDS011;36879;51.416;6.678;2023-05-16T04:11:52;18.40;;;3.30;;
50900;SDS011;36879;51.416;6.678;2023-05-16T04:14:22;12.68;;;3.53;;
50900;SDS011;36879;51.416;6.678;2023-05-16T04:16:48;17.75;;;3.90;;
50900;SDS011;36879;51.416;6.678;2023-05-16T04:19:33;18.48;;;3.70;;
50900;SDS011;36879;51.416;6.678;2023-05-16T04:22:00;8.10;;;3.30;;
50900;SDS011;36879;51.416;6.678;2023-05-16T04:24:26;23.40;;;5.07;;
50900;SDS011;36879;51.416;6.678;2023-05-16T04:26:53;11.68;;;3.42;;
50900;SDS011;36879;51.416;6.678;2023-05-16T04:29:35;12.30;;;3.70;;
50900;SDS011;36879;51.416;6.678;2023-05-16T04:32:01;11.00;;;3.08;;
50900;SDS011;36879;51.416;6.678;2023-05-16T04:34:27;15.45;;;4.68;;
50900;SDS011;36879;51.416;6.678;2023-05-16T04:36:53;17.65;;;3.95;;
50900;SDS011;36879;51.416;6.678;2023-05-16T04:39:20;19.90;;;3.72;;
50900;SDS011;36879;51.416;6.678;2023-05-16T04:41:46;18.67;;;3.67;;
50900;SDS011;36879;51.416;6.678;2023-05-16T04:44:12;10.27;;;2.78;;
50900;SDS011;36879;51.416;6.678;2023-05-16T04:46:38;16.65;;;3.28;;
50900;SDS011;36879;51.416;6.678;2023-05-16T04:49:04;11.90;;;2.92;;
50900;SDS011;36879;51.416;6.678;2023-05-16T04:51:30;17.73;;;4.07;;
50900;SDS011;36879;51.416;6.678;2023-05-16T04:53:57;13.13;;;3.38;;
50900;SDS011;36879;51.416;6.678;2023-05-16T04:56:23;12.10;;;3.63;;
50900;SDS011;36879;51.416;6.678;2023-05-16T04:58:50;21.40;;;3.95;;
50900;SDS011;36879;51.416;6.678;2023-05-16T05:01:17;9.77;;;3.20;;
50900;SDS011;36879;51.416;6.678;2023-05-16T05:03:42;17.25;;;3.42;;
50900;SDS011;36879;51.416;6.678;2023-05-16T05:06:09;18.55;;;3.63;;
50900;SDS011;36879;51.416;6.678;2023-05-16T05:08:35;19.27;;;3.22;;
50900;SDS011;36879;51.416;6.678;2023-05-16T05:11:01;10.18;;;3.00;;
50900;SDS011;36879;51.416;6.678;2023-05-16T05:13:27;12.13;;;3.40;;
50900;SDS011;36879;51.416;6.678;2023-05-16T05:15:53;12.13;;;3.42;;
50900;SDS011;36879;51.416;6.678;2023-05-16T05:18:19;17.30;;;3.78;;
50900;SDS011;36879;51.416;6.678;2023-05-16T05:20:45;14.27;;;4.10;;
50900;SDS011;36879;51.416;6.678;2023-05-16T05:23:11;11.18;;;3.33;;
50900;SDS011;36879;51.416;6.678;2023-05-16T05:25:37;12.48;;;3.75;;
50900;SDS011;36879;51.416;6.678;2023-05-16T05:28:04;22.58;;;3.63;;
50900;SDS011;36879;51.416;6.678;2023-05-16T05:30:30;14.88;;;3.53;;
50900;SDS011;36879;51.416;6.678;2023-05-16T05:32:56;13.98;;;4.20;;
50900;SDS011;36879;51.416;6.678;2023-05-16T05:35:22;16.67;;;4.82;;
50900;SDS011;36879;51.416;6.678;2023-05-16T05:37:48;17.63;;;4.57;;
50900;SDS011;36879;51.416;6.678;2023-05-16T05:40:14;13.35;;;3.70;;
50900;SDS011;36879;51.416;6.678;2023-05-16T05:42:40;11.77;;;4.65;;
50900;SDS011;36879;51.416;6.678;2023-05-16T05:45:06;27.35;;;5.15;;
50900;SDS011;36879;51.416;6.678;2023-05-16T05:47:33;18.25;;;4.10;;
50900;SDS011;36879;51.416;6.678;2023-05-16T05:49:59;12.43;;;3.25;;
50900;SDS011;36879;51.416;6.678;2023-05-16T05:52:25;18.58;;;4.78;;
50900;SDS011;36879;51.416;6.678;2023-05-16T05:54:52;14.95;;;2.92;;
50900;SDS011;36879;51.416;6.678;2023-05-16T05:57:18;14.88;;;4.68;;
50900;SDS011;36879;51.416;6.678;2023-05-16T05:59:45;16.88;;;3.67;;
50900;SDS011;36879;51.416;6.678;2023-05-16T06:02:11;12.93;;;4.15;;
50900;SDS011;36879;51.416;6.678;2023-05-16T06:04:37;14.38;;;3.22;;
50900;SDS011;36879;51.416;6.678;2023-05-16T06:07:03;11.20;;;3.55;;
50900;SDS011;36879;51.416;6.678;2023-05-16T06:09:29;14.73;;;3.50;;
50900;SDS011;36879;51.416;6.678;2023-05-16T06:11:55;12.27;;;3.90;;
50900;SDS011;36879;51.416;6.678;2023-05-16T06:14:21;13.48;;;3.72;;
50900;SDS011;36879;51.416;6.678;2023-05-16T06:16:47;13.05;;;4.28;;
50900;SDS011;36879;51.416;6.678;2023-05-16T06:19:13;15.20;;;3.78;;
50900;SDS011;36879;51.416;6.678;2023-05-16T06:21:40;11.65;;;4.03;;
50900;SDS011;36879;51.416;6.678;2023-05-16T06:24:07;16.05;;;4.40;;
50900;SDS011;36879;51.416;6.678;2023-05-16T06:26:33;11.50;;;2.80;;
50900;SDS011;36879;51.416;6.678;2023-05-16T06:28:59;17.50;;;4.13;;
50900;SDS011;36879;51.416;6.678;2023-05-16T06:31:25;10.38;;;3.47;;
50900;SDS011;36879;51.416;6.678;2023-05-16T06:33:51;8.75;;;3.03;;
50900;SDS011;36879;51.416;6.678;2023-05-16T06:36:17;11.45;;;3.60;;
50900;SDS011;36879;51.416;6.678;2023-05-16T06:38:43;19.23;;;4.38;;
50900;SDS011;36879;51.416;6.678;2023-05-16T06:41:09;14.40;;;3.25;;
50900;SDS011;36879;51.416;6.678;2023-05-16T06:43:35;26.77;;;4.40;;
50900;SDS011;36879;51.416;6.678;2023-05-16T06:46:01;14.18;;;2.97;;
50900;SDS011;36879;51.416;6.678;2023-05-16T06:48:27;43.13;;;7.50;;
50900;SDS011;36879;51.416;6.678;2023-05-16T06:50:54;15.65;;;3.15;;
50900;SDS011;36879;51.416;6.678;2023-05-16T06:53:20;12.05;;;2.95;;
50900;SDS011;36879;51.416;6.678;2023-05-16T06:55:46;15.82;;;2.95;;
50900;SDS011;36879;51.416;6.678;2023-05-16T06:58:12;10.75;;;2.75;;
50900;SDS011;36879;51.416;6.678;2023-05-16T07:00:38;14.45;;;3.60;;
50900;SDS011;36879;51.416;6.678;2023-05-16T07:03:04;13.80;;;3.05;;
50900;SDS011;36879;51.416;6.678;2023-05-16T07:05:30;15.20;;;2.53;;
50900;SDS011;36879;51.416;6.678;2023-05-16T07:07:56;11.82;;;1.88;;
50900;SDS011;36879;51.416;6.678;2023-05-16T07:10:22;9.48;;;2.17;;
50900;SDS011;36879;51.416;6.678;2023-05-16T07:12:48;6.97;;;1.85;;
50900;SDS011;36879;51.416;6.678;2023-05-16T07:15:15;10.27;;;1.52;;
50900;SDS011;36879;51.416;6.678;2023-05-16T07:17:40;7.35;;;2.03;;
50900;SDS011;36879;51.416;6.678;2023-05-16T07:20:07;13.48;;;2.58;;
50900;SDS011;36879;51.416;6.678;2023-05-16T07:22:37;9.20;;;2.10;;
50900;SDS011;36879;51.416;6.678;2023-05-16T07:25:03;6.55;;;1.73;;
50900;SDS011;36879;51.416;6.678;2023-05-16T07:27:29;7.95;;;1.83;;
50900;SDS011;36879;51.416;6.678;2023-05-16T07:29:56;10.18;;;2.95;;
50900;SDS011;36879;51.416;6.678;2023-05-16T07:32:22;7.53;;;1.55;;
50900;SDS011;36879;51.416;6.678;2023-05-16T07:34:48;7.75;;;1.45;;
50900;SDS011;36879;51.416;6.678;2023-05-16T07:37:14;10.93;;;2.53;;
50900;SDS011;36879;51.416;6.678;2023-05-16T07:39:40;10.43;;;1.92;;
50900;SDS011;36879;51.416;6.678;2023-05-16T07:42:06;7.68;;;1.90;;
50900;SDS011;36879;51.416;6.678;2023-05-16T07:44:33;10.02;;;2.08;;
50900;SDS011;36879;51.416;6.678;2023-05-16T07:46:59;7.10;;;1.60;;
50900;SDS011;36879;51.416;6.678;2023-05-16T07:49:25;12.48;;;2.42;;
50900;SDS011;36879;51.416;6.678;2023-05-16T07:51:51;23.80;;;2.95;;
50900;SDS011;36879;51.416;6.678;2023-05-16T07:54:17;16.98;;;2.45;;
50900;SDS011;36879;51.416;6.678;2023-05-16T07:56:43;16.00;;;2.20;;
50900;SDS011;36879;51.416;6.678;2023-05-16T07:59:09;24.00;;;2.53;;
50900;SDS011;36879;51.416;6.678;2023-05-16T08:01:35;8.90;;;1.60;;
50900;SDS011;36879;51.416;6.678;2023-05-16T08:04:01;7.68;;;1.60;;
50900;SDS011;36879;51.416;6.678;2023-05-16T08:06:27;18.15;;;2.40;;
50900;SDS011;36879;51.416;6.678;2023-05-16T08:08:53;15.45;;;2.22;;
50900;SDS011;36879;51.416;6.678;2023-05-16T08:11:20;14.20;;;2.42;;
50900;SDS011;36879;51.416;6.678;2023-05-16T08:13:46;15.30;;;2.22;;
50900;SDS011;36879;51.416;6.678;2023-05-16T08:16:12;6.47;;;1.40;;
50900;SDS011;36879;51.416;6.678;2023-05-16T08:18:38;10.20;;;1.65;;
50900;SDS011;36879;51.416;6.678;2023-05-16T08:21:04;63.47;;;8.40;;
50900;SDS011;36879;51.416;6.678;2023-05-16T08:23:30;8.10;;;1.23;;
50900;SDS011;36879;51.416;6.678;2023-05-16T08:25:56;6.63;;;1.20;;
50900;SDS011;36879;51.416;6.678;2023-05-16T08:28:22;10.52;;;2.03;;
50900;SDS011;36879;51.416;6.678;2023-05-16T08:30:49;10.30;;;1.92;;
50900;SDS011;36879;51.416;6.678;2023-05-16T08:33:15;16.65;;;2.70;;
50900;SDS011;36879;51.416;6.678;2023-05-16T08:35:41;27.83;;;3.17;;
50900;SDS011;36879;51.416;6.678;2023-05-16T08:38:08;33.53;;;2.65;;
50900;SDS011;36879;51.416;6.678;2023-05-16T08:40:34;32.25;;;3.55;;
50900;SDS011;36879;51.416;6.678;2023-05-16T08:43:00;28.08;;;3.60;;
50900;SDS011;36879;51.416;6.678;2023-05-16T08:45:26;31.83;;;3.10;;
50900;SDS011;36879;51.416;6.678;2023-05-16T08:47:53;32.10;;;3.83;;
50900;SDS011;36879;51.416;6.678;2023-05-16T08:50:20;53.53;;;5.13;;
50900;SDS011;36879;51.416;6.678;2023-05-16T08:52:46;21.58;;;3.08;;
50900;SDS011;36879;51.416;6.678;2023-05-16T08:55:12;7.90;;;2.67;;
50900;SDS011;36879;51.416;6.678;2023-05-16T08:57:39;11.13;;;2.05;;
50900;SDS011;36879;51.416;6.678;2023-05-16T09:00:06;40.55;;;4.38;;
50900;SDS011;36879;51.416;6.678;2023-05-16T09:02:44;6.35;;;1.85;;
50900;SDS011;36879;51.416;6.678;2023-05-16T09:05:11;5.90;;;1.10;;
50900;SDS011;36879;51.416;6.678;2023-05-16T09:07:37;4.78;;;1.63;;
50900;SDS011;36879;51.416;6.678;2023-05-16T09:10:03;5.70;;;1.77;;
50900;SDS011;36879;51.416;6.678;2023-05-16T09:12:31;6.43;;;1.60;;
50900;SDS011;36879;51.416;6.678;2023-05-16T09:14:57;10.38;;;1.90;;
50900;SDS011;36879;51.416;6.678;2023-05-16T09:17:23;20.95;;;3.13;;
50900;SDS011;36879;51.416;6.678;2023-05-16T09:19:50;6.90;;;1.23;;
50900;SDS011;36879;51.416;6.678;2023-05-16T09:22:20;4.85;;;1.15;;
50900;SDS011;36879;51.416;6.678;2023-05-16T09:24:48;11.65;;;1.67;;
50900;SDS011;36879;51.416;6.678;2023-05-16T09:27:14;4.53;;;1.15;;
50900;SDS011;36879;51.416;6.678;2023-05-16T09:29:41;11.48;;;2.17;;
50900;SDS011;36879;51.416;6.678;2023-05-16T09:32:16;7.50;;;1.60;;
50900;SDS011;36879;51.416;6.678;2023-05-16T09:34:43;5.80;;;1.27;;
50900;SDS011;36879;51.416;6.678;2023-05-16T09:37:10;10.50;;;1.67;;
50900;SDS011;36879;51.416;6.678;2023-05-16T09:39:37;4.72;;;1.55;;
50900;SDS011;36879;51.416;6.678;2023-05-16T09:42:04;9.20;;;1.40;;
50900;SDS011;36879;51.416;6.678;2023-05-16T09:44:30;7.07;;;1.58;;
50900;SDS011;36879;51.416;6.678;2023-05-16T09:46:56;6.00;;;1.60;;
50900;SDS011;36879;51.416;6.678;2023-05-16T09:49:22;5.30;;;1.90;;
50900;SDS011;36879;51.416;6.678;2023-05-16T09:51:49;5.13;;;1.45;;
50900;SDS011;36879;51.416;6.678;2023-05-16T09:54:16;11.23;;;2.05;;
50900;SDS011;36879;51.416;6.678;2023-05-16T09:56:53;10.00;;;2.28;;
50900;SDS011;36879;51.416;6.678;2023-05-16T09:59:20;7.45;;;1.50;;
50900;SDS011;36879;51.416;6.678;2023-05-16T10:01:46;9.88;;;1.70;;
50900;SDS011;36879;51.416;6.678;2023-05-16T10:04:13;44.13;;;4.40;;
50900;SDS011;36879;51.416;6.678;2023-05-16T10:06:40;9.02;;;1.48;;
50900;SDS011;36879;51.416;6.678;2023-05-16T10:09:09;4.88;;;1.30;;
50900;SDS011;36879;51.416;6.678;2023-05-16T10:11:36;10.48;;;1.92;;
50900;SDS011;36879;51.416;6.678;2023-05-16T10:14:04;6.63;;;2.38;;
50900;SDS011;36879;51.416;6.678;2023-05-16T10:16:30;6.75;;;2.25;;
50900;SDS011;36879;51.416;6.678;2023-05-16T10:18:56;8.85;;;1.90;;
50900;SDS011;36879;51.416;6.678;2023-05-16T10:21:23;3.72;;;1.13;;
50900;SDS011;36879;51.416;6.678;2023-05-16T10:23:50;6.72;;;1.80;;
50900;SDS011;36879;51.416;6.678;2023-05-16T10:26:17;6.00;;;1.88;;
50900;SDS011;36879;51.416;6.678;2023-05-16T10:28:45;12.30;;;1.80;;
50900;SDS011;36879;51.416;6.678;2023-05-16T10:31:11;7.45;;;1.42;;
50900;SDS011;36879;51.416;6.678;2023-05-16T10:33:39;7.30;;;1.88;;
50900;SDS011;36879;51.416;6.678;2023-05-16T10:36:05;6.60;;;1.30;;
50900;SDS011;36879;51.416;6.678;2023-05-16T10:38:32;6.35;;;1.50;;
50900;SDS011;36879;51.416;6.678;2023-05-16T10:40:58;7.65;;;1.50;;
50900;SDS011;36879;51.416;6.678;2023-05-16T10:43:25;5.03;;;1.38;;
50900;SDS011;36879;51.416;6.678;2023-05-16T10:46:09;5.53;;;1.33;;
50900;SDS011;36879;51.416;6.678;2023-05-16T10:49:51;6.13;;;1.45;;
50900;SDS011;36879;51.416;6.678;2023-05-16T10:52:17;5.65;;;1.05;;
50900;SDS011;36879;51.416;6.678;2023-05-16T10:54:47;3.72;;;1.30;;
50900;SDS011;36879;51.416;6.678;2023-05-16T10:57:18;3.72;;;1.63;;
50900;SDS011;36879;51.416;6.678;2023-05-16T10:59:47;3.47;;;1.20;;
50900;SDS011;36879;51.416;6.678;2023-05-16T11:02:20;6.47;;;1.15;;
50900;SDS011;36879;51.416;6.678;2023-05-16T11:04:47;4.72;;;1.02;;
50900;SDS011;36879;51.416;6.678;2023-05-16T11:07:14;4.53;;;0.80;;
50900;SDS011;36879;51.416;6.678;2023-05-16T11:09:42;5.70;;;1.02;;
50900;SDS011;36879;51.416;6.678;2023-05-16T11:12:09;3.63;;;1.30;;
50900;SDS011;36879;51.416;6.678;2023-05-16T11:14:36;3.60;;;1.10;;
50900;SDS011;36879;51.416;6.678;2023-05-16T11:17:07;3.13;;;0.90;;
50900;SDS011;36879;51.416;6.678;2023-05-16T11:22:06;2.33;;;0.70;;
50900;SDS011;36879;51.416;6.678;2023-05-16T11:24:32;2.53;;;0.88;;
50900;SDS011;36879;51.416;6.678;2023-05-16T11:26:59;4.57;;;1.00;;
50900;SDS011;36879;51.416;6.678;2023-05-16T11:29:34;3.45;;;0.70;;
50900;SDS011;36879;51.416;6.678;2023-05-16T11:32:02;4.38;;;1.02;;
50900;SDS011;36879;51.416;6.678;2023-05-16T11:34:29;5.90;;;2.33;;
50900;SDS011;36879;51.416;6.678;2023-05-16T11:36:55;4.20;;;1.13;;
50900;SDS011;36879;51.416;6.678;2023-05-16T11:39:22;2.67;;;0.70;;
50900;SDS011;36879;51.416;6.678;2023-05-16T11:41:52;4.72;;;1.17;;
50900;SDS011;36879;51.416;6.678;2023-05-16T11:44:18;2.13;;;0.80;;
50900;SDS011;36879;51.416;6.678;2023-05-16T11:46:44;2.63;;;0.90;;
50900;SDS011;36879;51.416;6.678;2023-05-16T11:49:40;5.93;;;0.95;;
50900;SDS011;36879;51.416;6.678;2023-05-16T11:53:16;1.83;;;0.60;;
50900;SDS011;36879;51.416;6.678;2023-05-16T11:56:49;3.92;;;1.20;;
50900;SDS011;36879;51.416;6.678;2023-05-16T12:00:25;2.05;;;0.77;;
50900;SDS011;36879;51.416;6.678;2023-05-16T12:04:01;3.28;;;1.20;;
50900;SDS011;36879;51.416;6.678;2023-05-16T12:07:37;2.63;;;0.60;;
50900;SDS011;36879;51.416;6.678;2023-05-16T12:11:13;4.80;;;0.80;;
50900;SDS011;36879;51.416;6.678;2023-05-16T12:14:50;4.38;;;0.80;;
50900;SDS011;36879;51.416;6.678;2023-05-16T12:18:26;6.43;;;1.08;;
50900;SDS011;36879;51.416;6.678;2023-05-16T12:22:02;1.90;;;0.60;;
50900;SDS011;36879;51.416;6.678;2023-05-16T12:25:39;5.53;;;1.15;;
50900;SDS011;36879;51.416;6.678;2023-05-16T12:28:10;2.08;;;0.63;;
50900;SDS011;36879;51.416;6.678;2023-05-16T12:30:39;3.67;;;0.77;;
50900;SDS011;36879;51.416;6.678;2023-05-16T12:35:36;2.92;;;0.75;;
50900;SDS011;36879;51.416;6.678;2023-05-16T12:38:03;4.90;;;0.90;;
50900;SDS011;36879;51.416;6.678;2023-05-16T12:40:29;3.25;;;0.75;;
50900;SDS011;36879;51.416;6.678;2023-05-16T12:42:56;5.40;;;0.95;;
50900;SDS011;36879;51.416;6.678;2023-05-16T12:45:22;2.53;;;0.65;;
50900;SDS011;36879;51.416;6.678;2023-05-16T12:47:48;10.45;;;2.28;;
50900;SDS011;36879;51.416;6.678;2023-05-16T12:50:15;6.97;;;1.48;;
50900;SDS011;36879;51.416;6.678;2023-05-16T12:52:47;2.55;;;0.98;;
50900;SDS011;36879;51.416;6.678;2023-05-16T12:55:14;2.92;;;0.90;;
50900;SDS011;36879;51.416;6.678;2023-05-16T12:57:41;4.57;;;0.80;;
50900;SDS011;36879;51.416;6.678;2023-05-16T13:00:08;3.75;;;0.90;;
50900;SDS011;36879;51.416;6.678;2023-05-16T13:02:36;2.58;;;0.73;;
50900;SDS011;36879;51.416;6.678;2023-05-16T13:05:02;3.25;;;0.80;;
50900;SDS011;36879;51.416;6.678;2023-05-16T13:07:28;3.42;;;1.25;;
50900;SDS011;36879;51.416;6.678;2023-05-16T13:09:54;4.47;;;1.08;;
50900;SDS011;36879;51.416;6.678;2023-05-16T13:12:20;2.63;;;0.77;;
50900;SDS011;36879;51.416;6.678;2023-05-16T13:14:50;3.67;;;0.75;;
50900;SDS011;36879;51.416;6.678;2023-05-16T13:17:16;3.63;;;0.98;;
50900;SDS011;36879;51.416;6.678;2023-05-16T13:19:42;5.00;;;0.98;;
50900;SDS011;36879;51.416;6.678;2023-05-16T13:22:08;4.88;;;1.00;;
50900;SDS011;36879;51.416;6.678;2023-05-16T13:24:34;2.75;;;1.13;;
50900;SDS011;36879;51.416;6.678;2023-05-16T13:27:01;3.65;;;1.33;;
50900;SDS011;36879;51.416;6.678;2023-05-16T13:29:27;5.93;;;1.30;;
50900;SDS011;36879;51.416;6.678;2023-05-16T13:31:53;4.13;;;1.10;;
50900;SDS011;36879;51.416;6.678;2023-05-16T13:34:19;4.20;;;1.20;;
50900;SDS011;36879;51.416;6.678;2023-05-16T13:36:44;6.70;;;1.08;;
50900;SDS011;36879;51.416;6.678;2023-05-16T13:39:11;6.05;;;1.17;;
50900;SDS011;36879;51.416;6.678;2023-05-16T13:41:37;3.78;;;1.20;;
50900;SDS011;36879;51.416;6.678;2023-05-16T13:44:05;3.22;;;0.90;;
50900;SDS011;36879;51.416;6.678;2023-05-16T13:46:31;4.40;;;1.10;;
50900;SDS011;36879;51.416;6.678;2023-05-16T13:48:57;3.00;;;1.00;;
50900;SDS011;36879;51.416;6.678;2023-05-16T13:51:23;4.47;;;1.50;;
50900;SDS011;36879;51.416;6.678;2023-05-16T13:53:49;4.15;;;1.40;;
50900;SDS011;36879;51.416;6.678;2023-05-16T13:56:15;3.60;;;1.25;;
50900;SDS011;36879;51.416;6.678;2023-05-16T13:58:41;7.78;;;1.30;;
50900;SDS011;36879;51.416;6.678;2023-05-16T14:01:07;2.67;;;1.13;;
50900;SDS011;36879;51.416;6.678;2023-05-16T14:03:33;4.47;;;1.40;;
50900;SDS011;36879;51.416;6.678;2023-05-16T14:06:00;3.63;;;1.38;;
50900;SDS011;36879;51.416;6.678;2023-05-16T14:08:26;4.70;;;1.60;;
50900;SDS011;36879;51.416;6.678;2023-05-16T14:10:53;4.22;;;1.10;;
50900;SDS011;36879;51.416;6.678;2023-05-16T14:13:19;3.97;;;1.52;;
50900;SDS011;36879;51.416;6.678;2023-05-16T14:15:45;4.22;;;1.30;;
50900;SDS011;36879;51.416;6.678;2023-05-16T14:18:11;3.60;;;1.38;;
50900;SDS011;36879;51.416;6.678;2023-05-16T14:20:38;5.28;;;1.48;;
50900;SDS011;36879;51.416;6.678;2023-05-16T14:23:04;4.82;;;2.20;;
50900;SDS011;36879;51.416;6.678;2023-05-16T14:25:30;3.15;;;1.60;;
50900;SDS011;36879;51.416;6.678;2023-05-16T14:27:56;5.30;;;1.75;;
50900;SDS011;36879;51.416;6.678;2023-05-16T14:30:22;6.32;;;1.60;;
50900;SDS011;36879;51.416;6.678;2023-05-16T14:32:48;4.80;;;1.60;;
50900;SDS011;36879;51.416;6.678;2023-05-16T14:35:15;2.45;;;1.10;;
50900;SDS011;36879;51.416;6.678;2023-05-16T14:37:41;4.43;;;1.40;;
50900;SDS011;36879;51.416;6.678;2023-05-16T14:40:07;3.63;;;1.30;;
50900;SDS011;36879;51.416;6.678;2023-05-16T14:42:33;5.97;;;1.67;;
50900;SDS011;36879;51.416;6.678;2023-05-16T14:44:59;4.57;;;1.88;;
50900;SDS011;36879;51.416;6.678;2023-05-16T14:47:25;6.95;;;1.55;;
50900;SDS011;36879;51.416;6.678;2023-05-16T14:49:52;3.28;;;1.20;;
50900;SDS011;36879;51.416;6.678;2023-05-16T14:52:20;4.03;;;1.70;;
50900;SDS011;36879;51.416;6.678;2023-05-16T14:54:46;5.82;;;1.70;;
50900;SDS011;36879;51.416;6.678;2023-05-16T14:57:11;3.90;;;1.55;;
50900;SDS011;36879;51.416;6.678;2023-05-16T14:59:37;6.13;;;1.77;;
50900;SDS011;36879;51.416;6.678;2023-05-16T15:02:04;4.38;;;1.52;;
50900;SDS011;36879;51.416;6.678;2023-05-16T15:04:31;4.80;;;1.70;;
50900;SDS011;36879;51.416;6.678;2023-05-16T15:06:57;4.72;;;1.83;;
50900;SDS011;36879;51.416;6.678;2023-05-16T15:18:27;4.68;;;1.60;;
50900;SDS011;36879;51.416;6.678;2023-05-16T15:20:53;4.85;;;1.70;;